Time,TemperatureF,DewpointF,PressureIn,WindDirection,WindDirectionDegrees,WindSpeedMPH,WindSpeedGustMPH,Humidity,HourlyPrecipIn,Conditions,Clouds,dailyrainin,SolarRadiationWatts/m^2,SoftwareType,DateUTC
2013-03-16 00:03:00,52.0,37.0,-100.00,WSW,255,4.0,17.0,57,0.00,,,0.00,0.000000,,2013-03-16 04:03:00,
2013-03-16 00:33:00,51.0,37.0,-100.00,West,269,4.0,12.0,58,0.00,,,0.00,0.000000,,2013-03-16 04:33:00,
2013-03-16 00:43:00,51.0,37.0,-100.00,West,269,4.0,12.0,58,0.00,,,0.00,0.000000,,2013-03-16 04:43:00,
2013-03-16 00:53:00,51.0,37.0,-100.00,West,269,4.0,12.0,58,0.00,,,0.00,0.000000,,2013-03-16 04:53:00,
2013-03-16 01:03:00,51.0,37.0,-100.00,West,269,4.0,12.0,58,0.00,,,0.00,0.000000,,2013-03-16 05:03:00,
2013-03-16 01:32:00,51.0,37.0,-100.00,West,278,6.0,19.0,58,0.00,,,0.00,0.000000,,2013-03-16 05:32:00,
2013-03-16 01:42:00,51.0,37.0,-100.00,West,278,6.0,19.0,58,0.00,,,0.00,0.000000,,2013-03-16 05:42:00,
2013-03-16 01:53:00,51.0,37.0,-100.00,West,278,6.0,19.0,58,0.00,,,0.00,0.000000,,2013-03-16 05:53:00,
2013-03-16 02:02:00,51.0,37.0,-100.00,West,278,6.0,19.0,58,0.00,,,0.00,0.000000,,2013-03-16 06:02:00,
2013-03-16 02:32:00,50.0,37.0,-100.00,West,277,5.0,17.0,61,0.00,,,0.00,0.000000,,2013-03-16 06:32:00,
2013-03-16 02:42:00,50.0,37.0,-100.00,West,277,5.0,17.0,61,0.00,,,0.00,0.000000,,2013-03-16 06:42:00,
2013-03-16 02:52:00,50.0,37.0,-100.00,West,277,5.0,17.0,61,0.00,,,0.00,0.000000,,2013-03-16 06:52:00,
2013-03-16 03:02:00,50.0,37.0,-100.00,West,277,5.0,17.0,61,0.00,,,0.00,0.000000,,2013-03-16 07:02:00,
2013-03-16 03:32:00,49.0,37.0,-100.00,WNW,293,4.0,20.0,62,0.00,,,0.00,0.000000,,2013-03-16 07:32:00,
2013-03-16 03:42:00,49.0,37.0,-100.00,WNW,293,4.0,20.0,62,0.00,,,0.00,0.000000,,2013-03-16 07:42:00,
2013-03-16 03:53:00,49.0,37.0,-100.00,WNW,293,4.0,20.0,62,0.00,,,0.00,0.000000,,2013-03-16 07:53:00,
2013-03-16 04:03:00,49.0,37.0,-100.00,WNW,293,4.0,20.0,62,0.00,,,0.00,0.000000,,2013-03-16 08:03:00,
2013-03-16 04:33:00,49.0,37.0,-100.00,West,271,6.0,21.0,62,0.00,,,0.00,0.000000,,2013-03-16 08:33:00,
2013-03-16 04:42:00,49.0,37.0,-100.00,West,271,6.0,21.0,62,0.00,,,0.00,0.000000,,2013-03-16 08:42:00,
2013-03-16 04:52:00,49.0,37.0,-100.00,West,271,6.0,21.0,62,0.00,,,0.00,0.000000,,2013-03-16 08:52:00,
2013-03-16 05:02:00,49.0,37.0,-100.00,West,271,6.0,21.0,62,0.00,,,0.00,0.000000,,2013-03-16 09:02:00,
2013-03-16 05:33:00,47.0,35.0,-100.00,WNW,286,6.0,17.0,64,0.00,,,0.00,0.000000,,2013-03-16 09:33:00,
2013-03-16 05:43:00,47.0,35.0,-100.00,WNW,286,6.0,17.0,64,0.00,,,0.00,0.000000,,2013-03-16 09:43:00,
2013-03-16 05:53:00,47.0,35.0,-100.00,WNW,286,6.0,17.0,64,0.00,,,0.00,0.000000,,2013-03-16 09:53:00,
2013-03-16 06:03:00,47.0,35.0,-100.00,WNW,286,6.0,17.0,64,0.00,,,0.00,0.000000,,2013-03-16 10:03:00,
2013-03-16 06:32:00,47.0,35.0,-100.00,WNW,296,5.0,17.0,64,0.00,,,0.00,0.000000,,2013-03-16 10:32:00,
2013-03-16 06:42:00,47.0,35.0,-100.00,WNW,296,5.0,17.0,64,0.00,,,0.00,0.000000,,2013-03-16 10:42:00,
2013-03-16 06:53:00,47.0,35.0,-100.00,WNW,296,5.0,17.0,64,0.00,,,0.00,0.000000,,2013-03-16 10:53:00,
2013-03-16 07:03:00,47.0,35.0,-100.00,WNW,296,5.0,17.0,64,0.00,,,0.00,0.000000,,2013-03-16 11:03:00,
2013-03-16 07:33:00,47.0,35.0,-100.00,WNW,298,5.0,16.0,63,0.00,,,0.00,0.000000,,2013-03-16 11:33:00,
2013-03-16 07:43:00,47.0,35.0,-100.00,WNW,298,5.0,16.0,63,0.00,,,0.00,0.000000,,2013-03-16 11:43:00,
2013-03-16 07:53:00,47.0,35.0,-100.00,WNW,298,5.0,16.0,63,0.00,,,0.00,0.000000,,2013-03-16 11:53:00,
2013-03-16 08:02:00,47.0,35.0,-100.00,WNW,298,5.0,16.0,63,0.00,,,0.00,0.000000,,2013-03-16 12:02:00,
2013-03-16 08:32:00,48.0,36.0,-100.00,WNW,289,5.0,17.0,62,0.00,,,0.00,4.000000,,2013-03-16 12:32:00,
2013-03-16 08:43:00,48.0,36.0,-100.00,WNW,289,5.0,17.0,62,0.00,,,0.00,4.000000,,2013-03-16 12:43:00,
2013-03-16 08:53:00,48.0,36.0,-100.00,WNW,289,5.0,17.0,62,0.00,,,0.00,4.000000,,2013-03-16 12:53:00,
2013-03-16 09:02:00,48.0,36.0,-100.00,WNW,289,5.0,17.0,62,0.00,,,0.00,4.000000,,2013-03-16 13:02:00,
2013-03-16 09:32:00,51.0,38.0,-100.00,WNW,293,5.0,15.0,61,0.00,,,0.00,95.000000,,2013-03-16 13:32:00,
2013-03-16 09:43:00,51.0,38.0,-100.00,WNW,293,5.0,15.0,61,0.00,,,0.00,95.000000,,2013-03-16 13:43:00,
2013-03-16 09:53:00,51.0,38.0,-100.00,WNW,293,5.0,15.0,61,0.00,,,0.00,95.000000,,2013-03-16 13:53:00,
2013-03-16 10:03:00,51.0,38.0,-100.00,WNW,293,5.0,15.0,61,0.00,,,0.00,95.000000,,2013-03-16 14:03:00,
2013-03-16 10:32:00,53.0,39.0,-100.00,WNW,282,5.0,18.0,59,0.00,,,0.00,299.000000,,2013-03-16 14:32:00,
2013-03-16 10:42:00,53.0,39.0,-100.00,WNW,282,5.0,18.0,59,0.00,,,0.00,299.000000,,2013-03-16 14:42:00,
2013-03-16 10:53:00,53.0,39.0,-100.00,WNW,282,5.0,18.0,59,0.00,,,0.00,299.000000,,2013-03-16 14:53:00,
2013-03-16 11:03:00,53.0,39.0,-100.00,WNW,282,5.0,18.0,59,0.00,,,0.00,299.000000,,2013-03-16 15:03:00,
2013-03-16 11:33:00,55.0,40.0,-100.00,WNW,286,8.0,19.0,56,0.00,,,0.00,478.000000,,2013-03-16 15:33:00,
2013-03-16 11:44:00,55.0,40.0,-100.00,WNW,286,8.0,19.0,56,0.00,,,0.00,478.000000,,2013-03-16 15:44:00,
2013-03-16 11:53:00,55.0,40.0,-100.00,WNW,286,8.0,19.0,56,0.00,,,0.00,478.000000,,2013-03-16 15:53:00,
2013-03-16 12:03:00,55.0,40.0,-100.00,WNW,286,8.0,19.0,56,0.00,,,0.00,478.000000,,2013-03-16 16:03:00,
2013-03-16 12:33:00,58.0,42.0,-100.00,WNW,287,7.0,19.0,55,0.00,,,0.00,577.000000,,2013-03-16 16:33:00,
2013-03-16 12:43:00,58.0,42.0,-100.00,WNW,287,7.0,19.0,55,0.00,,,0.00,577.000000,,2013-03-16 16:43:00,
2013-03-16 12:53:00,58.0,42.0,-100.00,WNW,287,7.0,19.0,55,0.00,,,0.00,577.000000,,2013-03-16 16:53:00,
2013-03-16 13:03:00,58.0,42.0,-100.00,WNW,287,7.0,19.0,55,0.00,,,0.00,577.000000,,2013-03-16 17:03:00,
2013-03-16 13:33:00,62.0,42.0,-100.00,WNW,288,6.0,18.0,48,0.00,,,0.00,829.000000,,2013-03-16 17:33:00,
2013-03-16 13:43:00,62.0,42.0,-100.00,WNW,288,6.0,18.0,48,0.00,,,0.00,829.000000,,2013-03-16 17:43:00,
2013-03-16 13:53:00,62.0,42.0,-100.00,WNW,288,6.0,18.0,48,0.00,,,0.00,829.000000,,2013-03-16 17:53:00,
2013-03-16 14:03:00,62.0,42.0,-100.00,WNW,288,6.0,18.0,48,0.00,,,0.00,829.000000,,2013-03-16 18:03:00,
2013-03-16 14:33:00,66.0,41.0,-100.00,WNW,297,5.0,16.0,40,0.00,,,0.00,889.000000,,2013-03-16 18:33:00,
2013-03-16 14:43:00,66.0,41.0,-100.00,WNW,297,5.0,16.0,40,0.00,,,0.00,889.000000,,2013-03-16 18:43:00,
2013-03-16 14:53:00,66.0,41.0,-100.00,WNW,297,5.0,16.0,40,0.00,,,0.00,889.000000,,2013-03-16 18:53:00,
2013-03-16 15:02:00,66.0,41.0,-100.00,WNW,297,5.0,16.0,40,0.00,,,0.00,889.000000,,2013-03-16 19:02:00,
2013-03-16 15:33:00,67.0,38.0,-100.00,West,261,5.0,17.0,35,0.00,,,0.00,878.000000,,2013-03-16 19:33:00,
2013-03-16 15:42:00,67.0,38.0,-100.00,West,261,5.0,17.0,35,0.00,,,0.00,878.000000,,2013-03-16 19:42:00,
2013-03-16 15:53:00,67.0,38.0,-100.00,West,261,5.0,17.0,35,0.00,,,0.00,878.000000,,2013-03-16 19:53:00,
2013-03-16 16:03:00,67.0,38.0,-100.00,West,261,5.0,17.0,35,0.00,,,0.00,878.000000,,2013-03-16 20:03:00,
2013-03-16 16:33:00,68.0,39.0,-100.00,West,262,5.0,17.0,34,0.00,,,0.00,796.000000,,2013-03-16 20:33:00,
2013-03-16 16:42:00,68.0,39.0,-100.00,West,262,5.0,17.0,34,0.00,,,0.00,796.000000,,2013-03-16 20:42:00,
2013-03-16 16:53:00,68.0,39.0,-100.00,West,262,5.0,17.0,34,0.00,,,0.00,796.000000,,2013-03-16 20:53:00,
2013-03-16 17:02:00,68.0,39.0,-100.00,West,262,5.0,17.0,34,0.00,,,0.00,796.000000,,2013-03-16 21:02:00,
2013-03-16 17:33:00,66.0,40.0,-100.00,West,266,4.0,18.0,38,0.00,,,0.00,580.000000,,2013-03-16 21:33:00,
2013-03-16 17:43:00,66.0,40.0,-100.00,West,266,4.0,18.0,38,0.00,,,0.00,580.000000,,2013-03-16 21:43:00,
2013-03-16 17:53:00,66.0,40.0,-100.00,West,266,4.0,18.0,38,0.00,,,0.00,580.000000,,2013-03-16 21:53:00,
2013-03-16 18:03:00,66.0,40.0,-100.00,West,266,4.0,18.0,38,0.00,,,0.00,580.000000,,2013-03-16 22:03:00,
2013-03-16 18:33:00,63.0,39.0,-100.00,WSW,256,3.0,17.0,41,0.00,,,0.00,427.000000,,2013-03-16 22:33:00,
2013-03-16 18:42:00,63.0,39.0,-100.00,WSW,256,3.0,17.0,41,0.00,,,0.00,427.000000,,2013-03-16 22:42:00,
2013-03-16 18:53:00,63.0,39.0,-100.00,WSW,256,3.0,17.0,41,0.00,,,0.00,427.000000,,2013-03-16 22:53:00,
2013-03-16 19:02:00,63.0,39.0,-100.00,WSW,256,3.0,17.0,41,0.00,,,0.00,427.000000,,2013-03-16 23:02:00,
2013-03-16 19:33:00,59.0,40.0,-100.00,WSW,250,5.0,12.0,49,0.00,,,0.00,89.000000,,2013-03-16 23:33:00,
2013-03-16 19:42:00,59.0,40.0,-100.00,WSW,250,5.0,12.0,49,0.00,,,0.00,89.000000,,2013-03-16 23:42:00,
2013-03-16 19:53:00,59.0,40.0,-100.00,WSW,250,5.0,12.0,49,0.00,,,0.00,89.000000,,2013-03-16 23:53:00,
2013-03-16 20:02:00,59.0,40.0,-100.00,WSW,250,5.0,12.0,49,0.00,,,0.00,89.000000,,2013-03-17 00:02:00,
2013-03-16 20:33:00,56.0,39.0,-100.00,WNW,283,5.0,13.0,52,0.00,,,0.00,14.000000,,2013-03-17 00:33:00,
2013-03-16 20:43:00,56.0,39.0,-100.00,WNW,283,5.0,13.0,52,0.00,,,0.00,14.000000,,2013-03-17 00:43:00,
2013-03-16 20:53:00,56.0,39.0,-100.00,WNW,283,5.0,13.0,52,0.00,,,0.00,14.000000,,2013-03-17 00:53:00,
2013-03-16 21:02:00,56.0,39.0,-100.00,WNW,283,5.0,13.0,52,0.00,,,0.00,14.000000,,2013-03-17 01:02:00,
2013-03-16 21:33:00,55.0,38.0,-100.00,West,277,6.0,14.0,53,0.00,,,0.00,0.000000,,2013-03-17 01:33:00,
2013-03-16 21:43:00,55.0,38.0,-100.00,West,277,6.0,14.0,53,0.00,,,0.00,0.000000,,2013-03-17 01:43:00,
2013-03-16 21:53:00,55.0,38.0,-100.00,West,277,6.0,14.0,53,0.00,,,0.00,0.000000,,2013-03-17 01:53:00,
2013-03-16 22:03:00,55.0,38.0,-100.00,West,277,6.0,14.0,53,0.00,,,0.00,0.000000,,2013-03-17 02:03:00,
2013-03-16 22:33:00,54.0,37.0,-100.00,West,276,5.0,15.0,52,0.00,,,0.00,0.000000,,2013-03-17 02:33:00,
2013-03-16 22:43:00,54.0,37.0,-100.00,West,276,5.0,15.0,52,0.00,,,0.00,0.000000,,2013-03-17 02:43:00,
2013-03-16 22:53:00,54.0,37.0,-100.00,West,276,5.0,15.0,52,0.00,,,0.00,0.000000,,2013-03-17 02:53:00,
2013-03-16 23:03:00,54.0,37.0,-100.00,West,276,5.0,15.0,52,0.00,,,0.00,0.000000,,2013-03-17 03:03:00,
2013-03-16 23:34:00,53.0,38.0,-100.00,NNW,346,2.0,14.0,56,0.00,,,0.00,0.000000,,2013-03-17 03:34:00,
2013-03-16 23:43:00,53.0,38.0,-100.00,NNW,346,2.0,14.0,56,0.00,,,0.00,0.000000,,2013-03-17 03:43:00,
2013-03-16 23:53:00,53.0,38.0,-100.00,NNW,346,2.0,14.0,56,0.00,,,0.00,0.000000,,2013-03-17 03:53:00,